Time;durP1;ratioP1;P1;durP2;ratioP2;P2;SDS_P1;SDS_P2;PMS_P1;PMS_P2;Temp;Humidity;BMP_temperature;BMP_pressure;BME280_temperature;BME280_humidity;BME280_pressure;Samples;Min_cycle;Max_cycle;Signal;HPM_P1;HPM_P2
2021/12/19 00:00:10;;;;;;;;;35.00;28.75;;;;;10.10;65.13;103081.78;5072851;27;45727;-65
2021/12/19 00:10:29;;;;;;;;;35.25;30.00;;;;;10.17;65.69;103070.28;5066112;28;45400;-65
2021/12/19 00:12:56;;;;;;;;;30.00;27.75;;;;;10.17;65.42;103065.84;5079988;28;45457;-65
2021/12/19 00:15:22;;;;;;;;;29.75;25.00;;;;;10.12;65.51;103058.66;5079774;28;46204;-65
2021/12/19 00:17:48;;;;;;;;;22.75;21.00;;;;;10.11;65.03;103060.47;5090501;27;45598;-64
2021/12/19 00:20:13;;;;;;;;;31.00;24.00;;;;;10.07;65.64;103044.41;5079493;28;45273;-65
2021/12/19 00:22:38;;;;;;;;;28.00;24.00;;;;;10.15;65.02;103056.91;5073673;28;45351;-65
2021/12/19 00:25:05;;;;;;;;;26.75;25.00;;;;;10.14;65.25;103055.16;5079669;28;45311;-65
2021/12/19 00:27:30;;;;;;;;;29.75;23.50;;;;;10.04;65.00;103052.38;5078747;27;45465;-64
2021/12/19 00:29:56;;;;;;;;;28.00;23.75;;;;;9.92;64.97;103050.53;5081959;28;45426;-65
2021/12/19 00:32:21;;;;;;;;;30.50;27.25;;;;;9.82;65.54;103038.88;5082960;27;45624;-65
2021/12/19 00:34:50;;;;;;;;;30.00;23.75;;;;;9.77;65.64;103044.22;5085294;27;46073;-64
2021/12/19 00:37:20;;;;;;;;;33.50;28.75;;;;;9.78;65.85;103037.97;5088731;27;45252;-64
2021/12/19 00:39:46;;;;;;;;;25.50;24.25;;;;;9.80;65.47;103030.88;5089825;27;45407;-65
2021/12/19 00:42:14;;;;;;;;;30.25;26.00;;;;;9.75;65.41;103037.06;5099109;27;45359;-65
2021/12/19 00:44:41;;;;;;;;;29.25;26.00;;;;;9.63;66.20;103020.09;5085954;27;45392;-64
2021/12/19 00:47:07;;;;;;;;;29.00;23.00;;;;;9.68;66.19;103036.13;5086942;27;45265;-65
2021/12/19 00:49:34;;;;;;;;;23.75;21.75;;;;;9.63;65.88;103030.75;5080221;27;45504;-64
2021/12/19 00:52:01;;;;;;;;;31.00;27.75;;;;;9.66;66.22;103031.69;5081628;27;45311;-65
2021/12/19 00:54:27;;;;;;;;;22.75;21.00;;;;;9.61;66.00;103032.50;5082735;28;47010;-64
2021/12/19 00:56:53;;;;;;;;;29.50;21.75;;;;;9.57;66.23;103028.06;5084318;27;45455;-65
2021/12/19 00:59:18;;;;;;;;;27.50;24.50;;;;;9.54;65.95;103019.09;5083079;28;45403;-65
2021/12/19 01:01:45;;;;;;;;;24.75;22.00;;;;;9.52;66.49;103027.13;5082850;28;45256;-65
2021/12/19 01:04:13;;;;;;;;;33.75;29.00;;;;;9.42;66.04;103022.56;5082808;28;46020;-64
2021/12/19 01:06:41;;;;;;;;;32.25;24.50;;;;;9.39;66.17;103022.56;5082978;27;45257;-65
2021/12/19 01:09:07;;;;;;;;;21.50;19.50;;;;;9.32;66.65;103016.28;5082628;28;45303;-65
2021/12/19 01:11:34;;;;;;;;;18.75;13.50;;;;;9.31;66.44;103022.47;5091419;27;45340;-64
2021/12/19 01:13:59;;;;;;;;;24.25;21.50;;;;;9.25;66.73;103015.34;5084095;27;45441;-64
2021/12/19 01:16:25;;;;;;;;;30.00;21.75;;;;;9.24;67.14;103015.31;5082686;28;45243;-65
2021/12/19 01:18:50;;;;;;;;;29.50;24.00;;;;;9.22;66.89;103017.97;5082501;27;45400;-65
2021/12/19 01:21:16;;;;;;;;;21.00;19.50;;;;;9.23;67.34;103009.06;5073663;28;45224;-65
2021/12/19 01:23:42;;;;;;;;;23.50;21.50;;;;;9.28;66.90;103009.13;5080747;27;45313;-65
2021/12/19 01:26:08;;;;;;;;;27.75;21.50;;;;;9.29;67.36;103010.91;5083708;27;45266;-64
2021/12/19 01:28:34;;;;;;;;;28.25;27.25;;;;;9.19;66.92;103009.06;5084033;27;45513;-65
2021/12/19 01:30:59;;;;;;;;;27.50;23.25;;;;;9.23;67.13;103019.72;5082571;28;45441;-64
2021/12/19 01:33:25;;;;;;;;;25.75;19.00;;;;;9.24;67.24;103015.31;5082266;27;45449;-65
2021/12/19 01:35:50;;;;;;;;;23.25;19.75;;;;;9.24;67.32;103016.19;5052242;28;45406;-65
2021/12/19 01:38:15;;;;;;;;;27.25;21.25;;;;;9.23;67.62;103003.75;5081154;28;45437;-64
2021/12/19 01:40:41;;;;;;;;;31.50;22.25;;;;;9.30;67.68;103017.13;5080800;28;45453;-64
2021/12/19 01:43:06;;;;;;;;;25.25;20.25;;;;;9.22;67.39;103004.63;5090334;27;45469;-64
2021/12/19 01:45:38;;;;;;;;;22.50;19.25;;;;;9.19;67.36;103014.38;5074546;27;45281;-65
2021/12/19 01:48:09;;;;;;;;;25.50;21.50;;;;;9.19;67.92;103017.03;5082202;27;45493;-64
2021/12/19 01:50:36;;;;;;;;;26.00;22.25;;;;;9.16;67.78;103009.91;5081479;28;45485;-64
2021/12/19 01:53:05;;;;;;;;;26.75;20.00;;;;;9.15;68.11;103007.22;5081900;28;45335;-65
2021/12/19 01:55:31;;;;;;;;;26.00;23.00;;;;;9.16;67.81;102998.34;5081849;28;45741;-65
2021/12/19 01:57:57;;;;;;;;;33.00;22.75;;;;;9.16;67.75;102999.25;5082218;28;45374;-65
2021/12/19 02:00:35;;;;;;;;;23.00;21.75;;;;;9.26;67.63;103005.56;5093093;27;45334;-65
2021/12/19 02:03:01;;;;;;;;;22.50;18.75;;;;;9.28;68.01;102998.47;5069438;27;46158;-64
2021/12/19 02:05:28;;;;;;;;;23.50;21.00;;;;;9.33;67.90;103003.84;5081942;28;45253;-65
2021/12/19 02:07:56;;;;;;;;;20.50;16.75;;;;;9.37;67.69;102994.97;5091833;27;45161;-64
2021/12/19 02:10:25;;;;;;;;;23.50;20.75;;;;;9.34;67.61;103000.28;5081587;28;45560;-65
2021/12/19 02:12:52;;;;;;;;;18.25;16.75;;;;;9.32;67.59;102991.38;5081898;28;46777;-64
2021/12/19 02:15:21;;;;;;;;;26.75;23.50;;;;;9.28;67.92;102987.81;5078182;28;45552;-65
2021/12/19 02:17:48;;;;;;;;;30.50;23.50;;;;;9.23;67.84;102978.88;5081855;28;45393;-65
2021/12/19 02:20:15;;;;;;;;;27.75;23.25;;;;;9.14;67.46;102990.34;5081026;27;45435;-65
2021/12/19 02:22:41;;;;;;;;;27.00;24.50;;;;;9.04;67.65;102973.38;5079731;27;46546;-65
2021/12/19 02:25:07;;;;;;;;;27.75;21.25;;;;;9.03;68.07;102973.34;5083613;27;45278;-65
2021/12/19 02:27:32;;;;;;;;;18.50;17.50;;;;;9.07;67.85;102975.16;5092192;27;45326;-64
2021/12/19 02:29:58;;;;;;;;;21.00;19.25;;;;;9.02;68.49;102976.88;5081439;28;45519;-65
2021/12/19 02:32:26;;;;;;;;;22.75;21.00;;;;;9.04;68.30;102977.81;5076508;27;46402;-65
2021/12/19 02:34:54;;;;;;;;;22.00;18.75;;;;;8.99;68.05;102976.88;5081298;27;45332;-65
2021/12/19 02:48:14;;;;;;;;;24.25;23.50;;;;;8.97;68.68;102968.88;5087367;27;45422;-64
2021/12/19 02:50:46;;;;;;;;;20.50;14.25;;;;;8.99;68.39;102967.09;5083701;27;45265;-65
2021/12/19 02:53:13;;;;;;;;;25.50;22.25;;;;;8.94;68.61;102958.19;5067589;27;46214;-65
2021/12/19 02:55:39;;;;;;;;;18.75;16.25;;;;;8.91;68.50;102958.16;5080820;28;45760;-64
2021/12/19 02:58:04;;;;;;;;;23.75;17.75;;;;;8.87;68.62;102957.22;5081484;27;45327;-65
2021/12/19 03:00:30;;;;;;;;;16.00;14.00;;;;;8.84;68.88;102959.84;5080348;27;45268;-65
2021/12/19 03:02:55;;;;;;;;;20.25;15.00;;;;;8.87;68.77;102953.66;5081148;28;45320;-64
2021/12/19 03:05:21;;;;;;;;;22.00;19.25;;;;;8.87;68.68;102956.31;5087412;27;45306;-64
2021/12/19 03:07:49;;;;;;;;;27.25;19.50;;;;;8.87;69.21;102953.66;5081524;28;45307;-64
2021/12/19 03:18:32;;;;;;;;;14.00;13.75;;;;;8.92;69.04;102945.72;5080889;28;45509;-64
2021/12/19 03:20:57;;;;;;;;;19.75;15.25;;;;;8.87;69.09;102937.66;5077345;27;46761;-65
2021/12/19 03:23:23;;;;;;;;;20.50;19.50;;;;;8.91;68.80;102939.50;5087032;27;46187;-65
2021/12/19 03:25:49;;;;;;;;;22.50;19.50;;;;;8.85;68.71;102931.44;5072569;27;46122;-65
2021/12/19 03:28:16;;;;;;;;;15.75;15.00;;;;;8.81;68.80;102925.19;5066412;28;45414;-64
2021/12/19 03:30:45;;;;;;;;;23.00;19.75;;;;;8.85;68.75;102931.44;5080291;28;45393;-65
2021/12/19 03:33:12;;;;;;;;;23.50;20.00;;;;;8.82;68.73;102929.66;5082215;27;46088;-65
2021/12/19 03:35:38;;;;;;;;;17.50;17.50;;;;;8.82;69.05;102942.97;5080607;28;45240;-64
2021/12/19 03:38:06;;;;;;;;;19.50;17.00;;;;;8.81;68.77;102940.28;5080627;28;45243;-65
2021/12/19 03:40:35;;;;;;;;;19.75;16.50;;;;;8.79;69.13;102934.94;5082504;27;45323;-64
2021/12/19 03:43:07;;;;;;;;;20.75;18.00;;;;;8.79;69.07;102942.94;5088181;27;46363;-65
2021/12/19 03:45:34;;;;;;;;;20.75;16.50;;;;;8.77;68.57;102927.81;5080658;28;45666;-65
2021/12/19 03:47:59;;;;;;;;;19.50;16.25;;;;;8.87;69.00;102941.25;5078343;27;45453;-64
2021/12/19 03:50:24;;;;;;;;;20.75;18.75;;;;;8.83;68.89;102941.19;5081233;27;45437;-64
2021/12/19 03:52:52;;;;;;;;;30.25;17.25;;;;;8.82;68.68;102942.97;5081162;27;46093;-64
2021/12/19 03:55:18;;;;;;;;;23.50;19.00;;;;;8.84;69.17;102949.19;5089506;27;45157;-65
2021/12/19 03:57:44;;;;;;;;;18.50;17.25;;;;;8.83;69.03;102944.75;5088752;27;45269;-64
2021/12/19 04:00:12;;;;;;;;;20.00;19.00;;;;;8.88;68.80;102948.34;5079956;27;45169;-65
2021/12/19 04:02:38;;;;;;;;;14.00;10.00;;;;;8.90;68.67;102946.59;5080032;28;46656;-65
2021/12/19 04:05:03;;;;;;;;;20.25;15.75;;;;;8.90;68.67;102946.59;5079235;28;45383;-64
2021/12/19 04:07:29;;;;;;;;;21.00;18.25;;;;;8.93;68.88;102939.53;5078862;27;45358;-64
2021/12/19 04:09:55;;;;;;;;;22.75;15.75;;;;;8.97;68.49;102936.00;5088785;27;45290;-64
2021/12/19 04:12:27;;;;;;;;;18.25;17.50;;;;;9.03;68.65;102934.28;5079900;28;46426;-64
2021/12/19 04:14:52;;;;;;;;;20.25;16.00;;;;;9.02;68.65;102931.59;5079812;27;45686;-64
2021/12/19 04:17:18;;;;;;;;;23.25;19.75;;;;;9.03;68.42;102931.63;5080049;28;45359;-65
2021/12/19 04:19:43;;;;;;;;;19.25;18.00;;;;;8.95;68.11;102930.66;5071095;28;45631;-65
2021/12/19 04:22:09;;;;;;;;;28.50;22.25;;;;;8.93;68.40;102936.84;5079697;28;45353;-64
2021/12/19 04:24:34;;;;;;;;;21.50;14.25;;;;;8.85;68.46;102924.38;5078823;27;45393;-65
2021/12/19 04:27:00;;;;;;;;;15.50;14.25;;;;;8.78;68.58;102921.63;5080910;27;45814;-65
2021/12/19 04:29:26;;;;;;;;;18.25;15.00;;;;;8.71;69.05;102918.00;5080085;28;45257;-64
2021/12/19 04:31:53;;;;;;;;;20.00;16.50;;;;;8.64;68.78;102908.16;5079246;28;45223;-65
2021/12/19 04:34:19;;;;;;;;;19.00;17.00;;;;;8.67;69.20;102919.75;5079677;28;45333;-64
2021/12/19 04:36:49;;;;;;;;;20.00;17.25;;;;;8.65;69.25;102908.19;5079841;28;45409;-65
2021/12/19 04:58:15;;;;;;;;;20.75;18.75;;;;;8.80;68.93;102902.09;5086531;27;45409;-64
2021/12/19 05:00:53;;;;;;;;;17.50;16.50;;;;;8.74;69.20;102902.06;5079189;28;45859;-65
2021/12/19 05:03:47;;;;;;;;;23.75;18.75;;;;;8.71;69.19;102900.25;5079419;28;46083;-64
2021/12/19 05:14:21;;;;;;;;;20.25;17.50;;;;;8.79;69.23;102892.34;5066311;28;45394;-64
2021/12/19 05:16:48;;;;;;;;;11.00;10.25;;;;;8.75;69.11;102897.63;5082367;28;45270;-64
2021/12/19 05:19:28;;;;;;;;;20.50;15.75;;;;;8.68;69.37;102892.22;5083070;28;45426;-64
2021/12/19 05:22:01;;;;;;;;;18.75;13.75;;;;;8.64;69.80;102887.75;5082586;27;45469;-64
2021/12/19 05:27:01;;;;;;;;;13.25;9.25;;;;;8.73;69.69;102894.94;5085152;27;45534;-64
2021/12/19 05:29:26;;;;;;;;;16.75;13.50;;;;;8.73;69.36;102888.72;5082824;28;45382;-64
2021/12/19 05:31:52;;;;;;;;;18.25;14.25;;;;;8.69;69.48;102878.03;5081740;28;55571;-64
2021/12/19 05:34:17;;;;;;;;;13.00;12.50;;;;;8.75;69.63;102882.53;5082550;28;45433;-64
2021/12/19 05:47:50;;;;;;;;;4.00;1.00;;;;;8.63;69.49;102888.63;5071623;28;45401;-63
2021/12/19 05:50:19;;;;;;;;;12.50;8.50;;;;;8.61;69.58;102892.16;5081852;28;45520;-65
2021/12/19 05:52:46;;;;;;;;;12.00;9.25;;;;;8.52;69.34;102893.84;5086531;27;45397;-64
2021/12/19 05:55:11;;;;;;;;;8.50;8.00;;;;;8.46;69.66;102891.09;5081912;28;45450;-63
2021/12/19 05:57:36;;;;;;;;;12.25;7.75;;;;;8.41;69.49;102879.50;5081844;28;45299;-64
2021/12/19 06:00:05;;;;;;;;;6.75;6.75;;;;;8.43;69.93;102877.75;5080540;28;45714;-64
2021/12/19 06:02:31;;;;;;;;;11.50;10.75;;;;;8.46;69.69;102877.81;5079666;27;45459;-63
2021/12/19 06:04:56;;;;;;;;;12.00;10.00;;;;;8.53;69.77;102882.31;5079533;28;45478;-64
2021/12/19 06:07:21;;;;;;;;;8.75;8.50;;;;;8.60;69.68;102883.25;5081763;28;45298;-63
2021/12/19 06:09:47;;;;;;;;;10.75;9.50;;;;;8.66;69.35;102877.13;5081767;28;45389;-64
2021/12/19 06:12:12;;;;;;;;;14.25;11.50;;;;;8.63;69.65;102880.63;5062210;28;45705;-64
2021/12/19 06:14:38;;;;;;;;;11.50;11.50;;;;;8.63;69.67;102875.31;5078430;28;45469;-64
2021/12/19 06:17:04;;;;;;;;;9.00;8.25;;;;;8.65;69.67;102870.91;5084294;27;45556;-63
2021/12/19 06:19:29;;;;;;;;;13.00;9.00;;;;;8.73;69.19;102872.75;5081855;28;45373;-64
2021/12/19 06:21:55;;;;;;;;;12.00;11.75;;;;;8.73;69.65;102878.06;5081909;28;45426;-64
2021/12/19 06:24:21;;;;;;;;;11.25;9.00;;;;;8.68;69.47;102875.34;5080879;28;47126;-64
2021/12/19 06:26:46;;;;;;;;;10.25;6.25;;;;;8.66;69.35;102866.47;5088721;27;45195;-64
2021/12/19 06:29:12;;;;;;;;;12.25;12.25;;;;;8.59;69.28;102872.63;5081850;28;45314;-63
2021/12/19 06:31:38;;;;;;;;;13.50;10.50;;;;;8.51;70.01;102873.41;5081282;28;45356;-63
2021/12/19 06:34:03;;;;;;;;;10.50;10.50;;;;;8.49;69.92;102875.19;5085309;27;45378;-63
2021/12/19 06:36:29;;;;;;;;;11.75;9.75;;;;;8.48;69.86;102870.72;5081573;28;45223;-64
2021/12/19 06:38:54;;;;;;;;;13.75;13.50;;;;;8.45;69.94;102870.72;5080330;28;45819;-64
2021/12/19 06:41:20;;;;;;;;;6.25;4.50;;;;;8.48;69.74;102865.41;5080132;27;45642;-64
2021/12/19 06:43:45;;;;;;;;;13.50;11.25;;;;;8.46;69.70;102869.81;5080948;28;46571;-64
2021/12/19 06:46:11;;;;;;;;;9.25;8.25;;;;;8.47;70.01;102860.97;5081085;28;45330;-64
2021/12/19 06:48:37;;;;;;;;;10.50;10.50;;;;;8.48;69.61;102862.72;5081155;27;45301;-64
2021/12/19 06:51:02;;;;;;;;;12.75;8.25;;;;;8.48;69.96;102860.06;5081084;28;45317;-64
2021/12/19 06:53:29;;;;;;;;;13.00;12.00;;;;;8.52;69.70;102861.91;5079882;28;46118;-64
2021/12/19 06:55:55;;;;;;;;;9.00;9.00;;;;;8.50;69.64;102865.41;5081266;27;45536;-64
2021/12/19 06:58:20;;;;;;;;;10.50;8.50;;;;;8.47;69.80;102862.72;5081242;28;45232;-64
2021/12/19 07:00:46;;;;;;;;;11.75;9.00;;;;;8.44;69.83;102870.69;5080510;28;45385;-64
2021/12/19 07:03:13;;;;;;;;;12.25;10.50;;;;;8.46;69.92;102877.81;5080703;27;46104;-64
2021/12/19 07:05:39;;;;;;;;;12.00;9.75;;;;;8.46;69.80;102877.81;5089811;27;45599;-64
2021/12/19 07:08:04;;;;;;;;;8.25;7.75;;;;;8.34;70.00;102856.34;5080760;27;45356;-64
2021/12/19 07:10:30;;;;;;;;;15.25;8.75;;;;;8.39;69.32;102878.59;5082474;27;45466;-64
2021/12/19 07:12:55;;;;;;;;;12.75;12.00;;;;;8.37;70.26;102884.75;5080758;28;45336;-68
2021/12/19 07:15:24;;;;;;;;;11.25;7.50;;;;;8.34;70.16;102885.63;5069562;27;45926;-68
2021/12/19 07:17:49;;;;;;;;;8.25;7.25;;;;;8.26;69.88;102879.31;5088327;27;45539;-69
2021/12/19 07:20:15;;;;;;;;;11.25;8.00;;;;;8.21;69.85;102879.25;5086270;27;45394;-69
2021/12/19 07:22:41;;;;;;;;;12.00;10.25;;;;;8.18;70.07;102879.22;5070024;27;47199;-69
2021/12/19 07:25:07;;;;;;;;;12.50;10.25;;;;;8.13;70.25;102875.63;5089912;27;45475;-64
2021/12/19 07:27:32;;;;;;;;;5.75;3.25;;;;;8.16;70.34;102879.22;5070010;27;45554;-64
2021/12/19 07:29:58;;;;;;;;;12.25;8.50;;;;;8.19;70.28;102872.16;5066628;28;45491;-64
2021/12/19 07:32:24;;;;;;;;;10.75;9.00;;;;;8.24;70.51;102873.97;5066814;28;45446;-64
2021/12/19 07:34:50;;;;;;;;;10.25;7.00;;;;;8.27;70.17;102867.78;5071214;28;45488;-64
2021/12/19 07:37:18;;;;;;;;;7.25;6.75;;;;;8.29;70.07;102868.72;5055109;27;45501;-64
2021/12/19 07:39:57;;;;;;;;;6.50;6.25;;;;;8.26;69.92;102863.38;5065925;28;46276;-64
2021/12/19 07:42:22;;;;;;;;;7.00;6.00;;;;;8.22;69.79;102861.53;5066212;28;47005;-64
2021/12/19 07:44:47;;;;;;;;;5.75;5.00;;;;;8.22;69.82;102866.84;5068187;28;45410;-64
2021/12/19 07:47:14;;;;;;;;;7.50;7.00;;;;;8.20;70.04;102865.94;5065889;28;45496;-64
2021/12/19 07:49:39;;;;;;;;;7.75;6.50;;;;;8.20;69.78;102863.28;5077799;28;45481;-64
2021/12/19 07:52:04;;;;;;;;;7.50;4.00;;;;;8.17;70.01;102858.84;5066735;28;46005;-64
2021/12/19 07:54:30;;;;;;;;;6.75;6.25;;;;;8.15;69.83;102864.13;5069470;27;45570;-65
2021/12/19 07:56:55;;;;;;;;;7.00;4.50;;;;;8.15;70.29;102861.47;5086820;27;45564;-65
2021/12/19 07:59:21;;;;;;;;;12.25;8.00;;;;;8.22;70.13;102869.50;5088809;27;45686;-64
2021/12/19 08:01:48;;;;;;;;;7.25;7.00;;;;;8.23;69.92;102863.31;5087548;27;45333;-64
2021/12/19 08:04:13;;;;;;;;;12.75;6.25;;;;;8.15;69.92;102861.47;5085238;27;45631;-70
2021/12/19 08:06:39;;;;;;;;;9.50;8.00;;;;;8.21;69.76;102871.28;5089376;27;46802;-70
2021/12/19 08:09:09;;;;;;;;;8.25;7.75;;;;;8.14;70.00;102861.47;5082328;27;45521;-72
2021/12/19 08:11:41;;;;;;;;;10.00;8.00;;;;;8.15;70.00;102868.53;5060922;27;47360;-71
2021/12/19 08:14:12;;;;;;;;;11.00;7.50;;;;;8.18;70.07;102873.03;5087503;27;45470;-70
2021/12/19 08:16:38;;;;;;;;;11.25;11.25;;;;;8.19;69.77;102867.72;5070292;27;45519;-71
2021/12/19 08:19:04;;;;;;;;;5.50;5.50;;;;;8.18;69.88;102857.06;5086517;27;45697;-71
2021/12/19 08:21:29;;;;;;;;;13.75;8.00;;;;;8.23;69.85;102869.53;5085342;27;45583;-71
2021/12/19 08:23:58;;;;;;;;;11.50;8.00;;;;;8.27;69.66;102871.38;5068126;27;45464;-70
2021/12/19 08:26:25;;;;;;;;;9.00;9.00;;;;;8.29;69.48;102874.03;5082362;27;45984;-72
2021/12/19 08:28:50;;;;;;;;;11.50;11.50;;;;;8.25;69.73;102872.22;5068383;27;45564;-65
2021/12/19 08:31:16;;;;;;;;;10.50;10.00;;;;;8.24;69.83;102876.66;5086112;27;46008;-66
2021/12/19 08:33:41;;;;;;;;;11.50;8.50;;;;;8.23;69.55;102871.31;5086832;27;45464;-65
2021/12/19 08:36:07;;;;;;;;;10.25;9.00;;;;;8.23;69.64;102871.31;5089327;27;45502;-66
2021/12/19 08:38:33;;;;;;;;;9.25;8.00;;;;;8.24;69.51;102868.66;5081321;27;45601;-65
2021/12/19 08:40:59;;;;;;;;;12.25;8.75;;;;;8.26;69.69;102858.91;5083559;27;45486;-65
2021/12/19 08:43:24;;;;;;;;;7.00;5.00;;;;;8.27;69.51;102860.72;5074629;27;45499;-65
2021/12/19 08:45:49;;;;;;;;;9.00;9.00;;;;;8.29;69.17;102864.28;5083948;27;45745;-65
2021/12/19 08:48:18;;;;;;;;;8.25;7.00;;;;;8.25;69.41;102853.59;5080888;27;45557;-66
2021/12/19 08:50:45;;;;;;;;;6.00;6.00;;;;;8.24;69.11;102860.69;5070832;27;46176;-66
2021/12/19 08:53:10;;;;;;;;;12.25;10.75;;;;;8.19;69.25;102859.75;5082999;28;45374;-65
2021/12/19 08:55:36;;;;;;;;;14.50;9.75;;;;;8.21;69.42;102855.31;5083138;27;45464;-65
2021/12/19 08:58:01;;;;;;;;;12.50;12.25;;;;;8.15;69.27;102864.13;5081125;27;45547;-65
2021/12/19 09:00:27;;;;;;;;;11.50;11.50;;;;;8.11;69.61;102864.06;5093739;27;46619;-65
2021/12/19 09:02:55;;;;;;;;;14.25;10.75;;;;;8.16;69.57;102865.91;5082660;28;45469;-65
2021/12/19 09:05:22;;;;;;;;;10.25;9.25;;;;;8.18;69.22;102860.59;5083113;28;45330;-65
2021/12/19 09:07:50;;;;;;;;;16.00;11.75;;;;;8.21;69.47;102870.41;5082760;28;45544;-65
2021/12/19 09:10:16;;;;;;;;;6.50;3.50;;;;;8.20;69.20;102876.59;5082504;28;46335;-65
2021/12/19 09:12:41;;;;;;;;;7.50;7.00;;;;;8.15;69.39;102880.09;5082851;28;45301;-65
2021/12/19 09:15:07;;;;;;;;;14.75;9.00;;;;;8.11;69.17;102874.72;5064940;28;45344;-65
2021/12/19 09:17:33;;;;;;;;;10.25;10.25;;;;;8.05;69.27;102871.97;5082084;27;45527;-65
2021/12/19 09:19:58;;;;;;;;;10.00;10.00;;;;;8.02;69.41;102870.19;5081535;28;46181;-65
2021/12/19 09:22:24;;;;;;;;;8.00;8.00;;;;;7.96;69.27;102865.66;5091369;27;45298;-65
2021/12/19 09:24:49;;;;;;;;;14.00;10.25;;;;;8.02;69.43;102870.19;5091814;27;45497;-65
2021/12/19 09:27:14;;;;;;;;;11.25;10.75;;;;;8.03;69.47;102871.94;5089369;27;45264;-64
2021/12/19 09:29:40;;;;;;;;;10.75;8.00;;;;;8.01;69.83;102870.16;5092234;27;45448;-64
2021/12/19 09:32:06;;;;;;;;;9.25;7.75;;;;;8.04;69.71;102868.44;5088383;27;46321;-64
2021/12/19 09:34:32;;;;;;;;;9.25;6.75;;;;;8.05;69.43;102867.56;5084834;27;47194;-65
2021/12/19 09:36:58;;;;;;;;;7.00;7.00;;;;;7.90;69.54;102854.97;5090103;27;45379;-65
2021/12/19 09:39:24;;;;;;;;;8.50;8.50;;;;;7.97;69.60;102866.56;5092158;27;46078;-65
2021/12/19 09:41:56;;;;;;;;;9.25;6.50;;;;;7.95;69.57;102871.88;5088494;27;45583;-65
2021/12/19 09:44:22;;;;;;;;;8.75;8.75;;;;;8.00;69.37;102869.25;5086556;27;45330;-65
2021/12/19 09:46:49;;;;;;;;;7.50;7.00;;;;;7.97;69.62;102861.25;5084534;27;45279;-65
2021/12/19 09:49:16;;;;;;;;;10.25;8.75;;;;;7.98;69.60;102871.00;5086156;27;46121;-65
2021/12/19 09:51:42;;;;;;;;;12.75;12.00;;;;;7.91;69.96;102859.41;5087514;27;45500;-65
2021/12/19 09:54:10;;;;;;;;;13.00;11.50;;;;;7.93;69.78;102862.06;5075162;27;45469;-65
2021/12/19 09:56:36;;;;;;;;;13.50;12.25;;;;;7.93;70.46;102859.41;5067790;28;45580;-65
2021/12/19 09:59:11;;;;;;;;;15.50;10.25;;;;;7.93;69.90;102862.97;5083937;27;46440;-65
2021/12/19 10:01:37;;;;;;;;;17.00;13.00;;;;;7.96;70.11;102863.00;5086547;27;45525;-64
2021/12/19 10:04:04;;;;;;;;;12.25;12.25;;;;;7.99;70.09;102856.84;5086401;27;45573;-65
2021/12/19 10:06:31;;;;;;;;;12.75;9.75;;;;;8.01;70.25;102852.44;5091514;27;45520;-65
2021/12/19 10:09:15;;;;;;;;;12.75;11.00;;;;;7.87;69.94;102830.06;5089005;27;46053;-64
2021/12/19 10:14:28;;;;;;;;;17.00;13.25;;;;;8.00;70.13;102841.78;5088459;27;45803;-64
2021/12/19 10:16:55;;;;;;;;;19.00;18.00;;;;;8.03;70.19;102841.81;5091349;27;45486;-64
2021/12/19 10:19:21;;;;;;;;;14.25;12.00;;;;;8.03;70.33;102832.06;5088505;27;46825;-65
2021/12/19 10:21:46;;;;;;;;;12.50;12.25;;;;;8.08;70.23;102832.13;5086109;27;45723;-64
2021/12/19 10:24:32;;;;;;;;;17.00;14.25;;;;;8.20;70.45;102829.56;5092420;27;45440;-65
2021/12/19 10:26:58;;;;;;;;;16.00;13.50;;;;;8.22;69.88;102830.50;5090740;27;47087;-65
2021/12/19 10:29:42;;;;;;;;;19.00;16.00;;;;;8.30;70.11;102836.81;5084370;27;46345;-64
2021/12/19 10:32:07;;;;;;;;;14.00;12.75;;;;;8.23;69.93;102826.06;5072159;27;45697;-65
2021/12/19 10:34:33;;;;;;;;;12.25;11.25;;;;;8.19;69.93;102816.28;5081786;28;45176;-65
2021/12/19 10:36:58;;;;;;;;;19.75;15.50;;;;;8.21;70.19;102826.06;5081919;28;45278;-65
2021/12/19 10:39:26;;;;;;;;;14.00;14.00;;;;;8.18;70.02;102822.47;5080935;27;51846;-65
2021/12/19 10:42:00;;;;;;;;;17.50;13.50;;;;;8.11;69.88;102809.09;5081248;28;45377;-65
2021/12/19 10:47:32;;;;;;;;;18.75;14.75;;;;;8.27;69.94;102825.22;5081338;27;45437;-65
2021/12/19 10:49:57;;;;;;;;;16.25;11.25;;;;;8.28;69.96;102827.00;5080041;28;46403;-65
2021/12/19 10:52:38;;;;;;;;;17.25;17.25;;;;;8.26;69.80;102816.34;5080856;28;45382;-65
2021/12/19 10:55:08;;;;;;;;;17.00;14.50;;;;;8.28;70.18;102817.25;5081169;28;45287;-64
2021/12/19 10:57:36;;;;;;;;;18.00;15.00;;;;;8.33;69.99;102811.97;5081460;28;45325;-65
2021/12/19 11:00:10;;;;;;;;;18.50;14.00;;;;;8.41;69.82;102809.41;5081160;28;46325;-65
2021/12/19 11:02:41;;;;;;;;;17.25;14.50;;;;;8.46;69.72;102803.28;5081493;27;45726;-65
2021/12/19 11:05:36;;;;;;;;;15.00;14.00;;;;;8.51;69.58;102801.53;5081347;27;45316;-65
2021/12/19 11:08:08;;;;;;;;;24.25;19.25;;;;;8.52;69.44;102791.81;5081010;28;45412;-65
2021/12/19 11:10:35;;;;;;;;;18.00;15.00;;;;;8.50;69.17;102791.81;5081077;28;46383;-65
2021/12/19 11:13:08;;;;;;;;;15.75;14.25;;;;;8.49;69.31;102798.00;5080679;28;45504;-65
2021/12/19 11:15:34;;;;;;;;;15.50;15.25;;;;;8.44;68.87;102783.75;5081396;27;45374;-65
2021/12/19 11:17:59;;;;;;;;;23.50;18.00;;;;;8.44;68.65;102785.53;5081016;28;45559;-65
2021/12/19 11:20:25;;;;;;;;;18.50;17.75;;;;;8.31;68.63;102789.78;5079076;28;46015;-65
2021/12/19 11:22:50;;;;;;;;;13.00;12.25;;;;;8.21;68.41;102787.94;5077168;27;45425;-65
2021/12/19 11:25:15;;;;;;;;;16.00;14.75;;;;;8.22;68.67;102781.72;5080927;28;45551;-65
2021/12/19 11:27:43;;;;;;;;;20.25;16.25;;;;;8.21;68.53;102780.81;5080895;28;45432;-65
2021/12/19 11:30:11;;;;;;;;;17.50;15.75;;;;;8.08;68.76;102758.50;5080718;28;45477;-65
2021/12/19 11:33:14;;;;;;;;;15.75;15.75;;;;;8.16;68.69;102775.44;5080970;28;45434;-65
2021/12/19 11:35:46;;;;;;;;;23.75;22.50;;;;;8.16;68.71;102769.25;5069099;28;45307;-65
2021/12/19 11:38:17;;;;;;;;;19.50;17.25;;;;;8.10;68.54;102759.44;5080359;28;45384;-65
2021/12/19 11:40:44;;;;;;;;;20.00;19.75;;;;;8.12;68.34;102763.00;5080764;28;45349;-65
2021/12/19 11:43:12;;;;;;;;;20.25;15.50;;;;;8.16;68.72;102763.94;5080314;27;45558;-65
2021/12/19 11:45:45;;;;;;;;;28.00;23.25;;;;;8.14;68.69;102755.03;5080772;28;45482;-65
2021/12/19 11:50:53;;;;;;;;;18.00;15.75;;;;;8.09;68.68;102749.69;5073675;27;45465;-65
2021/12/19 11:53:19;;;;;;;;;18.00;17.00;;;;;8.09;68.72;102746.13;5080225;28;45687;-65
2021/12/19 11:55:46;;;;;;;;;21.50;20.75;;;;;8.13;68.55;102737.28;5080399;28;45256;-65
2021/12/19 11:58:11;;;;;;;;;23.25;19.25;;;;;8.11;68.73;102737.28;5080451;28;45373;-65
2021/12/19 12:00:47;;;;;;;;;25.75;21.25;;;;;8.06;68.72;102730.13;5080281;28;45245;-65
2021/12/19 12:03:12;;;;;;;;;23.50;19.25;;;;;8.04;69.02;102727.47;5080265;28;45307;-65
2021/12/19 12:05:43;;;;;;;;;21.75;19.50;;;;;8.09;69.19;102720.41;5080604;28;45481;-65
2021/12/19 12:08:09;;;;;;;;;27.25;22.25;;;;;8.17;69.13;102717.84;5080105;28;45333;-65
2021/12/19 12:10:50;;;;;;;;;17.75;15.00;;;;;8.21;68.65;102716.09;5080068;28;46126;-65
2021/12/19 12:13:29;;;;;;;;;24.00;19.50;;;;;8.18;68.45;102716.06;5080217;28;45402;-65
2021/12/19 12:16:08;;;;;;;;;23.00;19.50;;;;;8.19;68.85;102715.19;5076816;28;45178;-65
2021/12/19 12:18:37;;;;;;;;;21.00;17.75;;;;;8.20;68.96;102703.66;5080203;28;45443;-65
2021/12/19 12:21:29;;;;;;;;;20.50;18.25;;;;;8.26;68.47;102706.38;5072812;28;46345;-65
2021/12/19 12:24:05;;;;;;;;;26.00;18.00;;;;;8.28;68.69;102702.84;5079821;28;45616;-65
2021/12/19 12:26:36;;;;;;;;;18.75;16.75;;;;;8.31;68.65;102700.22;5079286;28;45302;-65
2021/12/19 12:29:03;;;;;;;;;20.75;15.25;;;;;8.33;68.71;102692.25;5079932;27;45311;-65
2021/12/19 12:31:29;;;;;;;;;25.00;18.00;;;;;8.41;68.56;102694.97;5079485;28;45481;-65
2021/12/19 12:33:55;;;;;;;;;17.25;15.25;;;;;8.41;68.33;102690.53;5080436;28;45492;-65
2021/12/19 12:36:22;;;;;;;;;19.00;17.25;;;;;8.39;68.48;102681.66;5080010;28;45302;-65